sensor_id;sensor_type;location;lat;lon;timestamp;P1;durP1;ratioP1;P2;durP2;ratioP2
73524;SDS011;61776;56.194;44.160;2022-07-22T05:13:30;3.37;;;1.50;;
73524;SDS011;61776;56.194;44.160;2022-07-22T05:15:56;5.20;;;1.85;;
73524;SDS011;61776;56.194;44.160;2022-07-22T05:18:22;4.22;;;1.70;;
73524;SDS011;61776;56.194;44.160;2022-07-22T05:20:47;3.90;;;1.47;;
73524;SDS011;61776;56.194;44.160;2022-07-22T05:23:13;3.10;;;1.80;;
73524;SDS011;61776;56.194;44.160;2022-07-22T05:25:39;3.53;;;1.48;;
73524;SDS011;61776;56.194;44.160;2022-07-22T05:28:06;3.10;;;1.88;;
73524;SDS011;61776;56.194;44.160;2022-07-22T05:30:35;3.25;;;2.00;;
73524;SDS011;61776;56.194;44.160;2022-07-22T05:33:02;4.83;;;1.90;;
73524;SDS011;61776;56.194;44.160;2022-07-22T05:35:46;4.30;;;1.65;;
73524;SDS011;61776;56.194;44.160;2022-07-22T05:38:14;4.57;;;1.80;;
73524;SDS011;61776;56.194;44.160;2022-07-22T05:40:40;3.58;;;1.45;;
73524;SDS011;61776;56.194;44.160;2022-07-22T05:43:06;3.42;;;1.63;;
73524;SDS011;61776;56.194;44.160;2022-07-22T05:45:32;3.47;;;1.70;;
73524;SDS011;61776;56.194;44.160;2022-07-22T05:47:57;7.75;;;1.85;;
73524;SDS011;61776;56.194;44.160;2022-07-22T05:50:24;3.35;;;2.00;;
73524;SDS011;61776;56.194;44.160;2022-07-22T05:52:50;3.35;;;1.70;;
73524;SDS011;61776;56.194;44.160;2022-07-22T05:55:15;3.40;;;1.70;;
73524;SDS011;61776;56.194;44.160;2022-07-22T05:57:42;3.33;;;1.77;;
73524;SDS011;61776;56.194;44.160;2022-07-22T06:00:09;4.05;;;1.80;;
73524;SDS011;61776;56.194;44.160;2022-07-22T06:02:42;4.18;;;1.92;;
73524;SDS011;61776;56.194;44.160;2022-07-22T06:05:13;3.42;;;1.70;;
73524;SDS011;61776;56.194;44.160;2022-07-22T06:07:39;4.13;;;1.70;;
73524;SDS011;61776;56.194;44.160;2022-07-22T06:10:07;3.97;;;2.25;;
73524;SDS011;61776;56.194;44.160;2022-07-22T06:12:33;5.70;;;1.75;;
73524;SDS011;61776;56.194;44.160;2022-07-22T06:14:59;4.38;;;1.83;;
73524;SDS011;61776;56.194;44.160;2022-07-22T06:17:25;4.33;;;1.80;;
73524;SDS011;61776;56.194;44.160;2022-07-22T06:19:52;2.97;;;1.60;;
73524;SDS011;61776;56.194;44.160;2022-07-22T06:22:19;4.90;;;1.70;;
73524;SDS011;61776;56.194;44.160;2022-07-22T06:24:45;4.60;;;1.83;;
73524;SDS011;61776;56.194;44.160;2022-07-22T06:27:12;5.45;;;1.80;;
73524;SDS011;61776;56.194;44.160;2022-07-22T06:29:38;4.63;;;1.90;;
73524;SDS011;61776;56.194;44.160;2022-07-22T06:32:04;4.32;;;1.80;;
73524;SDS011;61776;56.194;44.160;2022-07-22T06:34:30;2.95;;;1.60;;
73524;SDS011;61776;56.194;44.160;2022-07-22T06:37:02;3.88;;;2.00;;
73524;SDS011;61776;56.194;44.160;2022-07-22T06:39:28;2.83;;;2.20;;
73524;SDS011;61776;56.194;44.160;2022-07-22T06:42:00;2.90;;;2.03;;
73524;SDS011;61776;56.194;44.160;2022-07-22T06:44:46;3.38;;;1.70;;
73524;SDS011;61776;56.194;44.160;2022-07-22T06:47:38;3.80;;;2.05;;
73524;SDS011;61776;56.194;44.160;2022-07-22T06:50:06;3.85;;;1.90;;
73524;SDS011;61776;56.194;44.160;2022-07-22T06:52:32;3.92;;;1.92;;
73524;SDS011;61776;56.194;44.160;2022-07-22T06:54:59;3.40;;;2.13;;
73524;SDS011;61776;56.194;44.160;2022-07-22T06:57:31;3.50;;;1.88;;
73524;SDS011;61776;56.194;44.160;2022-07-22T06:59:57;3.83;;;2.30;;
73524;SDS011;61776;56.194;44.160;2022-07-22T07:02:24;3.58;;;2.20;;
73524;SDS011;61776;56.194;44.160;2022-07-22T07:04:50;2.90;;;1.90;;
73524;SDS011;61776;56.194;44.160;2022-07-22T07:07:16;3.00;;;1.90;;
73524;SDS011;61776;56.194;44.160;2022-07-22T07:09:59;3.80;;;2.20;;
73524;SDS011;61776;56.194;44.160;2022-07-22T07:12:37;8.50;;;1.90;;
73524;SDS011;61776;56.194;44.160;2022-07-22T07:15:18;4.97;;;2.22;;
73524;SDS011;61776;56.194;44.160;2022-07-22T07:17:44;3.57;;;2.47;;
73524;SDS011;61776;56.194;44.160;2022-07-22T07:20:14;3.20;;;2.30;;
73524;SDS011;61776;56.194;44.160;2022-07-22T07:22:39;3.00;;;1.75;;
73524;SDS011;61776;56.194;44.160;2022-07-22T07:25:06;4.13;;;1.70;;
73524;SDS011;61776;56.194;44.160;2022-07-22T07:27:34;3.80;;;2.03;;
73524;SDS011;61776;56.194;44.160;2022-07-22T07:30:01;3.70;;;2.00;;
73524;SDS011;61776;56.194;44.160;2022-07-22T07:32:28;4.72;;;1.70;;
73524;SDS011;61776;56.194;44.160;2022-07-22T07:34:54;3.47;;;1.90;;
73524;SDS011;61776;56.194;44.160;2022-07-22T07:37:20;4.57;;;2.00;;
73524;SDS011;61776;56.194;44.160;2022-07-22T07:39:46;5.55;;;1.67;;
73524;SDS011;61776;56.194;44.160;2022-07-22T07:42:12;4.53;;;1.77;;
73524;SDS011;61776;56.194;44.160;2022-07-22T07:44:39;3.85;;;1.70;;
73524;SDS011;61776;56.194;44.160;2022-07-22T07:47:05;4.23;;;1.70;;
73524;SDS011;61776;56.194;44.160;2022-07-22T07:49:31;2.83;;;1.55;;
73524;SDS011;61776;56.194;44.160;2022-07-22T07:51:57;4.95;;;2.40;;
73524;SDS011;61776;56.194;44.160;2022-07-22T07:54:23;3.60;;;2.72;;
73524;SDS011;61776;56.194;44.160;2022-07-22T07:56:50;3.93;;;1.80;;
73524;SDS011;61776;56.194;44.160;2022-07-22T07:59:16;4.70;;;2.03;;
73524;SDS011;61776;56.194;44.160;2022-07-22T08:01:43;2.83;;;2.28;;
73524;SDS011;61776;56.194;44.160;2022-07-22T08:04:09;6.22;;;2.50;;
73524;SDS011;61776;56.194;44.160;2022-07-22T08:06:35;3.75;;;1.95;;
73524;SDS011;61776;56.194;44.160;2022-07-22T08:09:02;3.33;;;2.40;;
73524;SDS011;61776;56.194;44.160;2022-07-22T08:11:32;4.30;;;2.00;;
73524;SDS011;61776;56.194;44.160;2022-07-22T08:14:18;4.25;;;2.00;;
73524;SDS011;61776;56.194;44.160;2022-07-22T08:17:11;3.63;;;2.50;;
73524;SDS011;61776;56.194;44.160;2022-07-22T08:19:37;5.43;;;2.70;;
73524;SDS011;61776;56.194;44.160;2022-07-22T08:22:03;5.57;;;2.53;;
73524;SDS011;61776;56.194;44.160;2022-07-22T08:24:32;3.90;;;2.58;;
73524;SDS011;61776;56.194;44.160;2022-07-22T08:27:00;7.13;;;2.45;;
73524;SDS011;61776;56.194;44.160;2022-07-22T08:29:27;3.65;;;2.60;;
73524;SDS011;61776;56.194;44.160;2022-07-22T08:31:53;3.15;;;2.38;;
73524;SDS011;61776;56.194;44.160;2022-07-22T08:34:20;3.63;;;2.70;;
73524;SDS011;61776;56.194;44.160;2022-07-22T08:36:46;3.30;;;2.65;;
73524;SDS011;61776;56.194;44.160;2022-07-22T08:39:12;2.58;;;1.67;;
73524;SDS011;61776;56.194;44.160;2022-07-22T08:41:38;5.25;;;2.20;;
73524;SDS011;61776;56.194;44.160;2022-07-22T08:44:05;6.13;;;2.20;;
73524;SDS011;61776;56.194;44.160;2022-07-22T08:46:33;3.08;;;1.92;;
73524;SDS011;61776;56.194;44.160;2022-07-22T08:49:18;2.95;;;1.95;;
73524;SDS011;61776;56.194;44.160;2022-07-22T08:51:52;6.32;;;2.15;;
73524;SDS011;61776;56.194;44.160;2022-07-22T08:54:23;6.30;;;2.97;;
73524;SDS011;61776;56.194;44.160;2022-07-22T08:56:50;3.13;;;1.87;;
73524;SDS011;61776;56.194;44.160;2022-07-22T08:59:17;6.07;;;1.90;;
73524;SDS011;61776;56.194;44.160;2022-07-22T09:07:32;6.32;;;1.67;;
73524;SDS011;61776;56.194;44.160;2022-07-22T09:10:11;2.83;;;1.50;;
73524;SDS011;61776;56.194;44.160;2022-07-22T09:13:11;3.25;;;2.25;;
73524;SDS011;61776;56.194;44.160;2022-07-22T09:15:59;3.97;;;2.83;;
73524;SDS011;61776;56.194;44.160;2022-07-22T09:18:46;3.50;;;1.83;;
73524;SDS011;61776;56.194;44.160;2022-07-22T09:21:21;4.10;;;1.98;;
73524;SDS011;61776;56.194;44.160;2022-07-22T09:24:07;5.63;;;2.20;;
73524;SDS011;61776;56.194;44.160;2022-07-22T09:26:36;5.50;;;2.20;;
73524;SDS011;61776;56.194;44.160;2022-07-22T09:29:21;3.15;;;2.55;;
73524;SDS011;61776;56.194;44.160;2022-07-22T09:32:06;8.77;;;2.30;;
73524;SDS011;61776;56.194;44.160;2022-07-22T09:35:05;3.10;;;2.47;;
73524;SDS011;61776;56.194;44.160;2022-07-22T09:37:47;4.03;;;2.20;;
73524;SDS011;61776;56.194;44.160;2022-07-22T09:40:22;5.07;;;3.03;;
73524;SDS011;61776;56.194;44.160;2022-07-22T09:42:53;3.00;;;2.10;;
73524;SDS011;61776;56.194;44.160;2022-07-22T09:45:28;3.65;;;2.70;;
73524;SDS011;61776;56.194;44.160;2022-07-22T09:47:56;4.20;;;2.72;;
73524;SDS011;61776;56.194;44.160;2022-07-22T09:50:41;4.63;;;2.30;;
73524;SDS011;61776;56.194;44.160;2022-07-22T09:53:35;3.53;;;2.20;;
73524;SDS011;61776;56.194;44.160;2022-07-22T09:56:08;6.63;;;2.70;;
73524;SDS011;61776;56.194;44.160;2022-07-22T09:58:35;3.85;;;2.35;;
73524;SDS011;61776;56.194;44.160;2022-07-22T10:01:06;4.38;;;2.72;;
73524;SDS011;61776;56.194;44.160;2022-07-22T10:03:35;4.53;;;2.50;;
73524;SDS011;61776;56.194;44.160;2022-07-22T10:06:03;3.70;;;2.35;;
73524;SDS011;61776;56.194;44.160;2022-07-22T10:08:31;5.72;;;2.50;;
73524;SDS011;61776;56.194;44.160;2022-07-22T10:10:59;4.18;;;2.90;;
73524;SDS011;61776;56.194;44.160;2022-07-22T10:13:30;3.50;;;2.17;;
73524;SDS011;61776;56.194;44.160;2022-07-22T10:15:57;4.33;;;1.70;;
73524;SDS011;61776;56.194;44.160;2022-07-22T10:18:24;4.78;;;2.45;;
73524;SDS011;61776;56.194;44.160;2022-07-22T10:21:04;3.72;;;2.28;;
73524;SDS011;61776;56.194;44.160;2022-07-22T10:23:32;4.53;;;3.13;;
73524;SDS011;61776;56.194;44.160;2022-07-22T10:26:01;3.30;;;2.57;;
73524;SDS011;61776;56.194;44.160;2022-07-22T10:28:31;2.90;;;2.38;;
73524;SDS011;61776;56.194;44.160;2022-07-22T10:33:44;2.83;;;2.40;;
73524;SDS011;61776;56.194;44.160;2022-07-22T10:36:14;5.03;;;2.80;;
73524;SDS011;61776;56.194;44.160;2022-07-22T10:41:34;3.17;;;1.98;;
73524;SDS011;61776;56.194;44.160;2022-07-22T10:44:10;4.38;;;3.20;;
73524;SDS011;61776;56.194;44.160;2022-07-22T10:49:16;3.88;;;2.72;;
73524;SDS011;61776;56.194;44.160;2022-07-22T10:57:42;4.93;;;2.58;;
73524;SDS011;61776;56.194;44.160;2022-07-22T11:00:08;3.67;;;2.70;;
73524;SDS011;61776;56.194;44.160;2022-07-22T11:02:36;3.83;;;2.85;;
73524;SDS011;61776;56.194;44.160;2022-07-22T11:05:02;4.27;;;3.00;;
73524;SDS011;61776;56.194;44.160;2022-07-22T11:07:29;4.25;;;2.38;;
73524;SDS011;61776;56.194;44.160;2022-07-22T11:12:54;5.78;;;2.78;;
73524;SDS011;61776;56.194;44.160;2022-07-22T11:15:24;5.57;;;3.38;;
73524;SDS011;61776;56.194;44.160;2022-07-22T11:17:55;4.77;;;3.40;;
73524;SDS011;61776;56.194;44.160;2022-07-22T11:20:23;3.75;;;2.63;;
73524;SDS011;61776;56.194;44.160;2022-07-22T11:22:49;5.22;;;3.97;;
73524;SDS011;61776;56.194;44.160;2022-07-22T11:25:15;5.03;;;3.47;;
73524;SDS011;61776;56.194;44.160;2022-07-22T11:27:50;6.95;;;3.30;;
73524;SDS011;61776;56.194;44.160;2022-07-22T11:30:23;5.30;;;2.13;;
73524;SDS011;61776;56.194;44.160;2022-07-22T11:32:48;3.38;;;2.13;;
73524;SDS011;61776;56.194;44.160;2022-07-22T11:35:14;3.23;;;2.63;;
73524;SDS011;61776;56.194;44.160;2022-07-22T11:37:40;5.68;;;2.85;;
73524;SDS011;61776;56.194;44.160;2022-07-22T11:40:06;3.72;;;3.30;;
73524;SDS011;61776;56.194;44.160;2022-07-22T11:42:33;3.93;;;2.73;;
73524;SDS011;61776;56.194;44.160;2022-07-22T11:44:59;4.85;;;2.70;;
73524;SDS011;61776;56.194;44.160;2022-07-22T11:47:25;5.15;;;2.72;;
73524;SDS011;61776;56.194;44.160;2022-07-22T11:49:51;6.57;;;3.10;;
73524;SDS011;61776;56.194;44.160;2022-07-22T11:52:17;3.67;;;2.35;;
73524;SDS011;61776;56.194;44.160;2022-07-22T11:54:43;4.25;;;3.13;;
73524;SDS011;61776;56.194;44.160;2022-07-22T11:57:11;2.95;;;2.55;;
73524;SDS011;61776;56.194;44.160;2022-07-22T11:59:39;5.40;;;3.47;;
73524;SDS011;61776;56.194;44.160;2022-07-22T12:02:05;4.47;;;2.77;;
73524;SDS011;61776;56.194;44.160;2022-07-22T12:04:34;3.10;;;2.63;;
73524;SDS011;61776;56.194;44.160;2022-07-22T12:07:02;4.07;;;2.88;;
73524;SDS011;61776;56.194;44.160;2022-07-22T12:09:30;4.00;;;3.10;;
73524;SDS011;61776;56.194;44.160;2022-07-22T12:11:59;5.32;;;3.40;;
73524;SDS011;61776;56.194;44.160;2022-07-22T12:14:25;3.97;;;3.40;;
73524;SDS011;61776;56.194;44.160;2022-07-22T12:16:55;5.93;;;3.28;;
73524;SDS011;61776;56.194;44.160;2022-07-22T12:19:51;3.35;;;2.80;;
73524;SDS011;61776;56.194;44.160;2022-07-22T12:22:20;4.00;;;3.33;;
73524;SDS011;61776;56.194;44.160;2022-07-22T12:24:57;3.60;;;2.80;;
73524;SDS011;61776;56.194;44.160;2022-07-22T12:27:25;5.15;;;3.10;;
73524;SDS011;61776;56.194;44.160;2022-07-22T12:29:51;6.28;;;3.75;;
73524;SDS011;61776;56.194;44.160;2022-07-22T12:32:18;4.97;;;3.10;;
73524;SDS011;61776;56.194;44.160;2022-07-22T12:35:02;4.50;;;2.90;;
73524;SDS011;61776;56.194;44.160;2022-07-22T12:40:00;5.05;;;3.28;;
73524;SDS011;61776;56.194;44.160;2022-07-22T12:42:30;4.53;;;3.65;;
73524;SDS011;61776;56.194;44.160;2022-07-22T12:53:33;3.72;;;2.90;;
73524;SDS011;61776;56.194;44.160;2022-07-22T12:56:01;3.45;;;3.13;;
73524;SDS011;61776;56.194;44.160;2022-07-22T12:58:29;3.63;;;3.20;;
73524;SDS011;61776;56.194;44.160;2022-07-22T13:00:58;3.97;;;3.20;;
73524;SDS011;61776;56.194;44.160;2022-07-22T13:03:26;5.65;;;3.63;;
73524;SDS011;61776;56.194;44.160;2022-07-22T13:05:54;4.60;;;3.30;;
73524;SDS011;61776;56.194;44.160;2022-07-22T13:08:22;3.35;;;3.03;;
73524;SDS011;61776;56.194;44.160;2022-07-22T13:10:49;4.70;;;2.90;;
73524;SDS011;61776;56.194;44.160;2022-07-22T13:13:16;3.88;;;3.47;;
73524;SDS011;61776;56.194;44.160;2022-07-22T13:15:42;3.80;;;2.90;;
73524;SDS011;61776;56.194;44.160;2022-07-22T13:18:07;4.38;;;3.40;;
73524;SDS011;61776;56.194;44.160;2022-07-22T13:20:33;4.50;;;3.30;;
73524;SDS011;61776;56.194;44.160;2022-07-22T13:22:59;4.18;;;3.45;;
73524;SDS011;61776;56.194;44.160;2022-07-22T13:25:25;4.35;;;3.95;;
73524;SDS011;61776;56.194;44.160;2022-07-22T13:27:52;3.70;;;3.40;;
73524;SDS011;61776;56.194;44.160;2022-07-22T13:30:18;4.10;;;3.70;;
73524;SDS011;61776;56.194;44.160;2022-07-22T13:32:44;3.50;;;2.97;;
73524;SDS011;61776;56.194;44.160;2022-07-22T13:35:10;3.17;;;2.75;;
73524;SDS011;61776;56.194;44.160;2022-07-22T13:37:37;4.63;;;3.25;;
73524;SDS011;61776;56.194;44.160;2022-07-22T13:40:03;4.00;;;3.47;;
73524;SDS011;61776;56.194;44.160;2022-07-22T13:42:29;4.45;;;3.00;;
73524;SDS011;61776;56.194;44.160;2022-07-22T13:44:56;4.93;;;3.35;;
73524;SDS011;61776;56.194;44.160;2022-07-22T13:47:21;4.15;;;3.22;;
73524;SDS011;61776;56.194;44.160;2022-07-22T13:49:48;4.43;;;3.03;;
73524;SDS011;61776;56.194;44.160;2022-07-22T13:52:15;3.80;;;3.10;;
73524;SDS011;61776;56.194;44.160;2022-07-22T13:54:41;3.92;;;3.25;;
73524;SDS011;61776;56.194;44.160;2022-07-22T13:57:07;4.40;;;3.47;;
73524;SDS011;61776;56.194;44.160;2022-07-22T13:59:35;6.78;;;3.88;;
73524;SDS011;61776;56.194;44.160;2022-07-22T14:02:02;5.27;;;3.70;;
73524;SDS011;61776;56.194;44.160;2022-07-22T14:04:29;4.55;;;3.45;;
73524;SDS011;61776;56.194;44.160;2022-07-22T14:06:55;7.20;;;3.50;;
73524;SDS011;61776;56.194;44.160;2022-07-22T14:09:21;4.73;;;3.17;;
73524;SDS011;61776;56.194;44.160;2022-07-22T14:11:47;4.10;;;2.97;;
73524;SDS011;61776;56.194;44.160;2022-07-22T14:14:13;5.65;;;3.65;;
73524;SDS011;61776;56.194;44.160;2022-07-22T14:16:39;4.25;;;3.53;;
73524;SDS011;61776;56.194;44.160;2022-07-22T14:19:09;4.20;;;3.70;;
73524;SDS011;61776;56.194;44.160;2022-07-22T14:21:39;4.63;;;4.00;;
73524;SDS011;61776;56.194;44.160;2022-07-22T14:24:07;3.90;;;3.20;;
73524;SDS011;61776;56.194;44.160;2022-07-22T14:26:34;5.28;;;3.20;;
73524;SDS011;61776;56.194;44.160;2022-07-22T14:29:01;5.22;;;3.55;;
73524;SDS011;61776;56.194;44.160;2022-07-22T14:31:27;4.30;;;3.20;;
73524;SDS011;61776;56.194;44.160;2022-07-22T14:33:53;4.13;;;3.13;;
73524;SDS011;61776;56.194;44.160;2022-07-22T14:36:20;4.82;;;3.90;;
73524;SDS011;61776;56.194;44.160;2022-07-22T14:38:46;4.55;;;3.60;;
73524;SDS011;61776;56.194;44.160;2022-07-22T14:41:15;4.05;;;3.65;;
73524;SDS011;61776;56.194;44.160;2022-07-22T14:43:42;4.37;;;3.83;;
73524;SDS011;61776;56.194;44.160;2022-07-22T14:46:08;5.00;;;3.35;;
73524;SDS011;61776;56.194;44.160;2022-07-22T14:48:35;5.72;;;3.83;;
73524;SDS011;61776;56.194;44.160;2022-07-22T14:51:02;3.90;;;3.47;;
73524;SDS011;61776;56.194;44.160;2022-07-22T14:53:29;7.97;;;4.43;;
73524;SDS011;61776;56.194;44.160;2022-07-22T14:55:55;8.30;;;3.70;;
73524;SDS011;61776;56.194;44.160;2022-07-22T14:58:21;4.38;;;3.97;;
73524;SDS011;61776;56.194;44.160;2022-07-22T15:00:47;5.30;;;4.30;;
73524;SDS011;61776;56.194;44.160;2022-07-22T15:03:13;4.00;;;3.60;;
73524;SDS011;61776;56.194;44.160;2022-07-22T15:05:39;4.97;;;3.90;;
73524;SDS011;61776;56.194;44.160;2022-07-22T15:08:07;5.13;;;4.10;;
73524;SDS011;61776;56.194;44.160;2022-07-22T15:10:33;5.75;;;3.97;;
73524;SDS011;61776;56.194;44.160;2022-07-22T17:10:21;16.23;;;12.43;;
73524;SDS011;61776;56.194;44.160;2022-07-22T17:12:48;18.10;;;14.98;;
73524;SDS011;61776;56.194;44.160;2022-07-22T17:15:14;20.27;;;13.77;;
73524;SDS011;61776;56.194;44.160;2022-07-22T17:17:41;18.52;;;14.05;;
73524;SDS011;61776;56.194;44.160;2022-07-22T17:20:08;17.10;;;12.83;;
73524;SDS011;61776;56.194;44.160;2022-07-22T17:25:16;21.33;;;12.20;;
73524;SDS011;61776;56.194;44.160;2022-07-22T17:27:42;17.85;;;12.93;;
73524;SDS011;61776;56.194;44.160;2022-07-22T17:30:08;19.40;;;12.70;;
73524;SDS011;61776;56.194;44.160;2022-07-22T17:32:35;13.90;;;10.33;;
73524;SDS011;61776;56.194;44.160;2022-07-22T17:35:01;11.68;;;7.57;;
73524;SDS011;61776;56.194;44.160;2022-07-22T17:37:28;9.10;;;6.78;;
73524;SDS011;61776;56.194;44.160;2022-07-22T17:39:53;10.10;;;7.05;;
73524;SDS011;61776;56.194;44.160;2022-07-22T17:42:19;9.13;;;6.00;;
73524;SDS011;61776;56.194;44.160;2022-07-22T17:44:45;11.63;;;6.10;;
73524;SDS011;61776;56.194;44.160;2022-07-22T17:47:11;9.90;;;6.50;;
73524;SDS011;61776;56.194;44.160;2022-07-22T17:49:38;9.45;;;6.90;;
73524;SDS011;61776;56.194;44.160;2022-07-22T17:56:06;11.80;;;7.38;;
73524;SDS011;61776;56.194;44.160;2022-07-22T18:04:10;13.13;;;5.43;;
73524;SDS011;61776;56.194;44.160;2022-07-22T18:06:40;20.17;;;5.70;;
73524;SDS011;61776;56.194;44.160;2022-07-22T18:09:06;27.63;;;16.83;;
73524;SDS011;61776;56.194;44.160;2022-07-22T18:11:31;39.20;;;18.90;;
73524;SDS011;61776;56.194;44.160;2022-07-22T18:13:57;31.33;;;15.77;;
73524;SDS011;61776;56.194;44.160;2022-07-22T18:16:23;30.70;;;15.18;;
73524;SDS011;61776;56.194;44.160;2022-07-22T18:18:49;31.30;;;13.03;;
73524;SDS011;61776;56.194;44.160;2022-07-22T18:21:15;26.75;;;14.20;;
73524;SDS011;61776;56.194;44.160;2022-07-22T18:23:41;26.25;;;13.40;;
73524;SDS011;61776;56.194;44.160;2022-07-22T18:26:08;21.98;;;11.63;;
73524;SDS011;61776;56.194;44.160;2022-07-22T18:30:04;29.53;;;10.77;;
73524;SDS011;61776;56.194;44.160;2022-07-22T18:33:33;23.02;;;10.45;;
73524;SDS011;61776;56.194;44.160;2022-07-22T18:37:02;23.77;;;11.43;;
73524;SDS011;61776;56.194;44.160;2022-07-22T18:40:31;28.80;;;11.52;;
73524;SDS011;61776;56.194;44.160;2022-07-22T18:44:00;22.73;;;12.07;;
73524;SDS011;61776;56.194;44.160;2022-07-22T18:51:00;38.45;;;15.57;;
73524;SDS011;61776;56.194;44.160;2022-07-22T18:54:29;97.50;;;46.78;;
73524;SDS011;61776;56.194;44.160;2022-07-22T18:57:59;53.42;;;24.83;;
73524;SDS011;61776;56.194;44.160;2022-07-22T19:01:30;36.88;;;17.08;;
73524;SDS011;61776;56.194;44.160;2022-07-22T19:05:24;34.40;;;18.23;;
73524;SDS011;61776;56.194;44.160;2022-07-22T19:09:42;38.53;;;17.55;;
73524;SDS011;61776;56.194;44.160;2022-07-22T19:12:08;31.27;;;15.57;;
73524;SDS011;61776;56.194;44.160;2022-07-22T19:16:04;35.75;;;19.30;;
73524;SDS011;61776;56.194;44.160;2022-07-22T19:19:59;28.63;;;15.35;;
73524;SDS011;61776;56.194;44.160;2022-07-22T19:23:28;25.87;;;15.10;;
73524;SDS011;61776;56.194;44.160;2022-07-22T19:26:58;32.97;;;14.52;;
73524;SDS011;61776;56.194;44.160;2022-07-22T19:30:28;25.80;;;14.18;;
73524;SDS011;61776;56.194;44.160;2022-07-22T19:33:56;116.72;;;49.47;;
73524;SDS011;61776;56.194;44.160;2022-07-22T19:37:26;91.20;;;40.22;;
73524;SDS011;61776;56.194;44.160;2022-07-22T19:44:24;127.55;;;53.17;;
73524;SDS011;61776;56.194;44.160;2022-07-22T19:47:52;84.40;;;38.90;;
73524;SDS011;61776;56.194;44.160;2022-07-22T19:52:05;83.85;;;35.75;;
73524;SDS011;61776;56.194;44.160;2022-07-22T19:56:02;68.97;;;32.13;;
73524;SDS011;61776;56.194;44.160;2022-07-22T19:59:31;59.07;;;28.17;;
73524;SDS011;61776;56.194;44.160;2022-07-22T20:03:01;51.53;;;25.40;;
